sensor_id;sensor_type;location;lat;lon;timestamp;temperature;humidity
52867;DHT22;38739;53.324;6.862;2023-03-24T00:01:13;11.20;99.90
52867;DHT22;38739;53.324;6.862;2023-03-24T00:03:39;11.20;99.90
52867;DHT22;38739;53.324;6.862;2023-03-24T00:06:06;11.20;99.90
52867;DHT22;38739;53.324;6.862;2023-03-24T00:08:35;11.20;99.90
52867;DHT22;38739;53.324;6.862;2023-03-24T00:11:12;11.20;99.90
52867;DHT22;38739;53.324;6.862;2023-03-24T00:13:54;11.20;99.90
52867;DHT22;38739;53.324;6.862;2023-03-24T00:16:23;11.20;99.90
52867;DHT22;38739;53.324;6.862;2023-03-24T00:18:49;11.20;99.90
52867;DHT22;38739;53.324;6.862;2023-03-24T00:21:24;11.20;99.90
52867;DHT22;38739;53.324;6.862;2023-03-24T00:23:50;11.20;99.90
52867;DHT22;38739;53.324;6.862;2023-03-24T00:26:19;11.20;99.90
52867;DHT22;38739;53.324;6.862;2023-03-24T00:28:47;11.20;99.90
52867;DHT22;38739;53.324;6.862;2023-03-24T00:31:14;11.20;99.90
52867;DHT22;38739;53.324;6.862;2023-03-24T00:33:41;11.20;99.90
52867;DHT22;38739;53.324;6.862;2023-03-24T00:36:09;11.30;99.90
52867;DHT22;38739;53.324;6.862;2023-03-24T00:38:39;11.20;99.90
52867;DHT22;38739;53.324;6.862;2023-03-24T00:41:09;11.30;99.90
52867;DHT22;38739;53.324;6.862;2023-03-24T00:43:35;11.30;99.90
52867;DHT22;38739;53.324;6.862;2023-03-24T00:46:04;11.20;99.90
52867;DHT22;38739;53.324;6.862;2023-03-24T00:48:31;11.20;99.90
52867;DHT22;38739;53.324;6.862;2023-03-24T00:51:04;11.20;99.90
52867;DHT22;38739;53.324;6.862;2023-03-24T00:53:33;11.20;99.90
52867;DHT22;38739;53.324;6.862;2023-03-24T00:56:00;11.20;99.90
52867;DHT22;38739;53.324;6.862;2023-03-24T00:58:28;11.30;99.90
52867;DHT22;38739;53.324;6.862;2023-03-24T01:00:58;11.20;99.90
52867;DHT22;38739;53.324;6.862;2023-03-24T01:03:25;11.20;99.90
52867;DHT22;38739;53.324;6.862;2023-03-24T01:05:54;11.30;99.90
52867;DHT22;38739;53.324;6.862;2023-03-24T01:08:26;11.30;99.90
52867;DHT22;38739;53.324;6.862;2023-03-24T01:10:53;11.30;99.90
52867;DHT22;38739;53.324;6.862;2023-03-24T01:13:27;11.20;99.90
52867;DHT22;38739;53.324;6.862;2023-03-24T01:15:54;11.20;99.90
52867;DHT22;38739;53.324;6.862;2023-03-24T01:18:20;11.20;99.90
52867;DHT22;38739;53.324;6.862;2023-03-24T01:20:48;11.20;99.90
52867;DHT22;38739;53.324;6.862;2023-03-24T01:23:19;11.20;99.90
52867;DHT22;38739;53.324;6.862;2023-03-24T01:25:46;11.20;99.90
52867;DHT22;38739;53.324;6.862;2023-03-24T01:28:15;11.20;99.90
52867;DHT22;38739;53.324;6.862;2023-03-24T01:30:46;11.20;99.90
52867;DHT22;38739;53.324;6.862;2023-03-24T01:33:19;11.10;99.90
52867;DHT22;38739;53.324;6.862;2023-03-24T01:35:45;11.10;99.90
52867;DHT22;38739;53.324;6.862;2023-03-24T01:38:12;11.20;99.90
52867;DHT22;38739;53.324;6.862;2023-03-24T01:40:41;11.10;99.90
52867;DHT22;38739;53.324;6.862;2023-03-24T01:43:17;11.10;99.90
52867;DHT22;38739;53.324;6.862;2023-03-24T01:48:37;11.10;99.90
52867;DHT22;38739;53.324;6.862;2023-03-24T01:51:33;11.10;99.90
52867;DHT22;38739;53.324;6.862;2023-03-24T01:54:18;11.10;99.90
52867;DHT22;38739;53.324;6.862;2023-03-24T01:57:01;11.10;99.90
52867;DHT22;38739;53.324;6.862;2023-03-24T01:59:29;11.10;99.90
52867;DHT22;38739;53.324;6.862;2023-03-24T02:01:56;11.10;99.90
52867;DHT22;38739;53.324;6.862;2023-03-24T02:04:37;11.10;99.90
52867;DHT22;38739;53.324;6.862;2023-03-24T02:07:57;11.10;99.90
52867;DHT22;38739;53.324;6.862;2023-03-24T02:09:55;11.10;99.90
52867;DHT22;38739;53.324;6.862;2023-03-24T02:12:21;11.10;99.90
52867;DHT22;38739;53.324;6.862;2023-03-24T02:14:47;11.10;99.90
52867;DHT22;38739;53.324;6.862;2023-03-24T02:17:43;11.10;99.90
52867;DHT22;38739;53.324;6.862;2023-03-24T02:31:33;11.20;99.90
52867;DHT22;38739;53.324;6.862;2023-03-24T02:37:23;11.20;99.90
52867;DHT22;38739;53.324;6.862;2023-03-24T02:45:44;11.10;99.90
52867;DHT22;38739;53.324;6.862;2023-03-24T02:48:35;11.20;99.90
52867;DHT22;38739;53.324;6.862;2023-03-24T02:53:59;11.20;99.90
52867;DHT22;38739;53.324;6.862;2023-03-24T02:56:38;11.20;99.90
52867;DHT22;38739;53.324;6.862;2023-03-24T02:59:15;11.20;99.90
52867;DHT22;38739;53.324;6.862;2023-03-24T03:01:53;11.20;99.90
52867;DHT22;38739;53.324;6.862;2023-03-24T03:04:32;11.20;99.90
52867;DHT22;38739;53.324;6.862;2023-03-24T03:07:02;11.30;99.90
52867;DHT22;38739;53.324;6.862;2023-03-24T03:09:36;11.20;99.90
52867;DHT22;38739;53.324;6.862;2023-03-24T03:12:04;11.30;99.90
52867;DHT22;38739;53.324;6.862;2023-03-24T03:14:43;11.30;99.90
52867;DHT22;38739;53.324;6.862;2023-03-24T03:17:20;11.30;99.90
52867;DHT22;38739;53.324;6.862;2023-03-24T03:20:00;11.40;99.90
52867;DHT22;38739;53.324;6.862;2023-03-24T03:22:41;11.40;99.90
52867;DHT22;38739;53.324;6.862;2023-03-24T03:25:12;11.40;99.90
52867;DHT22;38739;53.324;6.862;2023-03-24T03:27:42;11.40;99.90
52867;DHT22;38739;53.324;6.862;2023-03-24T03:30:22;11.40;99.90
52867;DHT22;38739;53.324;6.862;2023-03-24T03:33:00;11.40;99.90
52867;DHT22;38739;53.324;6.862;2023-03-24T03:41:50;11.40;99.90
52867;DHT22;38739;53.324;6.862;2023-03-24T03:44:16;11.40;99.90
52867;DHT22;38739;53.324;6.862;2023-03-24T03:46:42;11.40;99.90
52867;DHT22;38739;53.324;6.862;2023-03-24T03:49:07;11.50;99.90
52867;DHT22;38739;53.324;6.862;2023-03-24T03:51:34;11.50;99.90
52867;DHT22;38739;53.324;6.862;2023-03-24T03:54:03;11.50;99.90
52867;DHT22;38739;53.324;6.862;2023-03-24T03:56:33;11.50;99.90
52867;DHT22;38739;53.324;6.862;2023-03-24T03:58:59;11.40;99.90
52867;DHT22;38739;53.324;6.862;2023-03-24T04:01:28;11.30;99.90
52867;DHT22;38739;53.324;6.862;2023-03-24T04:04:07;11.30;99.90
52867;DHT22;38739;53.324;6.862;2023-03-24T04:09:39;11.20;99.90
52867;DHT22;38739;53.324;6.862;2023-03-24T04:21:17;11.00;99.90
52867;DHT22;38739;53.324;6.862;2023-03-24T04:27:12;10.90;99.90
52867;DHT22;38739;53.324;6.862;2023-03-24T04:32:30;10.80;99.90
52867;DHT22;38739;53.324;6.862;2023-03-24T04:35:10;10.70;99.90
52867;DHT22;38739;53.324;6.862;2023-03-24T04:37:39;10.70;99.90
52867;DHT22;38739;53.324;6.862;2023-03-24T04:40:10;10.70;99.90
52867;DHT22;38739;53.324;6.862;2023-03-24T04:42:42;10.60;99.90
52867;DHT22;38739;53.324;6.862;2023-03-24T04:45:10;10.60;99.90
52867;DHT22;38739;53.324;6.862;2023-03-24T04:47:45;10.40;99.90
52867;DHT22;38739;53.324;6.862;2023-03-24T04:50:12;10.40;99.90
52867;DHT22;38739;53.324;6.862;2023-03-24T04:52:40;10.30;99.90
52867;DHT22;38739;53.324;6.862;2023-03-24T04:58:17;10.20;99.90
52867;DHT22;38739;53.324;6.862;2023-03-24T05:00:43;10.10;99.90
52867;DHT22;38739;53.324;6.862;2023-03-24T05:03:10;10.10;99.90
52867;DHT22;38739;53.324;6.862;2023-03-24T05:05:46;10.00;99.90
52867;DHT22;38739;53.324;6.862;2023-03-24T05:08:13;9.90;99.90
52867;DHT22;38739;53.324;6.862;2023-03-24T05:10:41;9.80;99.90
52867;DHT22;38739;53.324;6.862;2023-03-24T05:13:07;9.80;99.90
52867;DHT22;38739;53.324;6.862;2023-03-24T05:15:33;9.70;99.90
52867;DHT22;38739;53.324;6.862;2023-03-24T05:17:59;9.60;99.90
52867;DHT22;38739;53.324;6.862;2023-03-24T05:20:27;9.60;99.90
52867;DHT22;38739;53.324;6.862;2023-03-24T05:22:55;9.50;99.90
52867;DHT22;38739;53.324;6.862;2023-03-24T05:25:24;9.50;99.90
52867;DHT22;38739;53.324;6.862;2023-03-24T05:27:50;9.50;99.90
52867;DHT22;38739;53.324;6.862;2023-03-24T05:30:16;9.40;99.90
52867;DHT22;38739;53.324;6.862;2023-03-24T05:32:41;9.40;99.90
52867;DHT22;38739;53.324;6.862;2023-03-24T05:35:07;9.40;99.90
52867;DHT22;38739;53.324;6.862;2023-03-24T05:37:33;9.30;99.90
52867;DHT22;38739;53.324;6.862;2023-03-24T05:40:02;9.30;99.90
52867;DHT22;38739;53.324;6.862;2023-03-24T05:42:28;9.30;99.90
52867;DHT22;38739;53.324;6.862;2023-03-24T05:44:53;9.30;99.90
52867;DHT22;38739;53.324;6.862;2023-03-24T05:47:19;9.30;99.90
52867;DHT22;38739;53.324;6.862;2023-03-24T05:49:45;9.40;99.90
52867;DHT22;38739;53.324;6.862;2023-03-24T05:52:11;9.40;99.90
52867;DHT22;38739;53.324;6.862;2023-03-24T05:54:40;9.40;99.90
52867;DHT22;38739;53.324;6.862;2023-03-24T05:57:06;9.50;99.90
52867;DHT22;38739;53.324;6.862;2023-03-24T05:59:36;9.40;99.90
52867;DHT22;38739;53.324;6.862;2023-03-24T06:02:02;9.50;99.90
52867;DHT22;38739;53.324;6.862;2023-03-24T06:04:28;9.50;99.90
52867;DHT22;38739;53.324;6.862;2023-03-24T06:06:55;9.60;99.90
52867;DHT22;38739;53.324;6.862;2023-03-24T06:09:25;9.60;99.90
52867;DHT22;38739;53.324;6.862;2023-03-24T06:11:54;9.60;99.90
52867;DHT22;38739;53.324;6.862;2023-03-24T06:14:20;9.70;99.90
52867;DHT22;38739;53.324;6.862;2023-03-24T06:16:46;9.70;99.90
52867;DHT22;38739;53.324;6.862;2023-03-24T06:19:15;9.70;99.90
52867;DHT22;38739;53.324;6.862;2023-03-24T06:21:41;9.70;99.90
52867;DHT22;38739;53.324;6.862;2023-03-24T06:24:09;9.70;99.90
52867;DHT22;38739;53.324;6.862;2023-03-24T06:26:35;9.70;99.90
52867;DHT22;38739;53.324;6.862;2023-03-24T06:29:00;9.70;99.90
52867;DHT22;38739;53.324;6.862;2023-03-24T06:31:26;9.80;99.90
52867;DHT22;38739;53.324;6.862;2023-03-24T06:33:54;9.80;99.90
52867;DHT22;38739;53.324;6.862;2023-03-24T06:36:19;9.80;99.90
52867;DHT22;38739;53.324;6.862;2023-03-24T06:38:45;9.80;99.90
52867;DHT22;38739;53.324;6.862;2023-03-24T06:41:11;9.80;99.90
52867;DHT22;38739;53.324;6.862;2023-03-24T06:43:37;9.80;99.90
52867;DHT22;38739;53.324;6.862;2023-03-24T06:46:02;9.80;99.90
52867;DHT22;38739;53.324;6.862;2023-03-24T06:48:28;9.90;99.90
52867;DHT22;38739;53.324;6.862;2023-03-24T06:51:03;9.80;99.90
52867;DHT22;38739;53.324;6.862;2023-03-24T06:53:35;9.80;99.90
52867;DHT22;38739;53.324;6.862;2023-03-24T06:56:11;9.80;99.90
52867;DHT22;38739;53.324;6.862;2023-03-24T06:58:42;9.80;99.90
52867;DHT22;38739;53.324;6.862;2023-03-24T07:01:08;9.90;99.90
52867;DHT22;38739;53.324;6.862;2023-03-24T07:03:34;9.80;99.90
52867;DHT22;38739;53.324;6.862;2023-03-24T07:05:59;9.80;99.90
52867;DHT22;38739;53.324;6.862;2023-03-24T07:08:25;9.90;99.90
52867;DHT22;38739;53.324;6.862;2023-03-24T07:10:51;9.90;99.90
52867;DHT22;38739;53.324;6.862;2023-03-24T07:13:22;9.90;99.90
52867;DHT22;38739;53.324;6.862;2023-03-24T07:15:48;9.80;99.90
52867;DHT22;38739;53.324;6.862;2023-03-24T07:18:17;9.90;99.90
52867;DHT22;38739;53.324;6.862;2023-03-24T07:20:44;9.90;99.90
52867;DHT22;38739;53.324;6.862;2023-03-24T07:23:11;9.90;99.90
52867;DHT22;38739;53.324;6.862;2023-03-24T07:25:39;9.90;99.90
52867;DHT22;38739;53.324;6.862;2023-03-24T07:28:05;9.90;99.90
52867;DHT22;38739;53.324;6.862;2023-03-24T07:30:34;9.90;99.90
52867;DHT22;38739;53.324;6.862;2023-03-24T07:33:04;10.00;99.90
52867;DHT22;38739;53.324;6.862;2023-03-24T07:35:31;10.00;99.90
52867;DHT22;38739;53.324;6.862;2023-03-24T07:37:58;9.90;99.90
52867;DHT22;38739;53.324;6.862;2023-03-24T07:40:30;10.00;99.90
52867;DHT22;38739;53.324;6.862;2023-03-24T07:43:05;10.00;99.90
52867;DHT22;38739;53.324;6.862;2023-03-24T07:45:31;10.00;99.90
52867;DHT22;38739;53.324;6.862;2023-03-24T07:47:57;10.00;99.90
52867;DHT22;38739;53.324;6.862;2023-03-24T07:50:27;10.00;99.90
52867;DHT22;38739;53.324;6.862;2023-03-24T07:52:56;10.00;99.90
52867;DHT22;38739;53.324;6.862;2023-03-24T07:55:21;10.00;99.90
52867;DHT22;38739;53.324;6.862;2023-03-24T07:57:48;10.00;99.90
52867;DHT22;38739;53.324;6.862;2023-03-24T08:00:15;10.00;99.90
52867;DHT22;38739;53.324;6.862;2023-03-24T08:02:50;10.10;99.90
52867;DHT22;38739;53.324;6.862;2023-03-24T08:05:20;10.10;99.90
52867;DHT22;38739;53.324;6.862;2023-03-24T08:08:14;10.10;99.90
52867;DHT22;38739;53.324;6.862;2023-03-24T08:10:41;10.10;99.90
52867;DHT22;38739;53.324;6.862;2023-03-24T08:13:07;10.20;99.90
52867;DHT22;38739;53.324;6.862;2023-03-24T08:15:32;10.20;99.90
52867;DHT22;38739;53.324;6.862;2023-03-24T08:17:58;10.30;99.90
52867;DHT22;38739;53.324;6.862;2023-03-24T08:20:24;10.30;99.90
52867;DHT22;38739;53.324;6.862;2023-03-24T08:22:51;10.30;99.90
52867;DHT22;38739;53.324;6.862;2023-03-24T08:25:23;10.40;99.90
52867;DHT22;38739;53.324;6.862;2023-03-24T08:27:49;10.40;99.90
52867;DHT22;38739;53.324;6.862;2023-03-24T08:30:20;10.50;99.90
52867;DHT22;38739;53.324;6.862;2023-03-24T08:32:51;10.50;99.90
52867;DHT22;38739;53.324;6.862;2023-03-24T08:35:19;10.50;99.90
52867;DHT22;38739;53.324;6.862;2023-03-24T08:37:45;10.50;99.90
52867;DHT22;38739;53.324;6.862;2023-03-24T08:40:14;10.60;99.90
52867;DHT22;38739;53.324;6.862;2023-03-24T08:42:42;10.60;99.90
52867;DHT22;38739;53.324;6.862;2023-03-24T08:45:10;10.80;99.90
52867;DHT22;38739;53.324;6.862;2023-03-24T08:47:37;10.80;99.90
52867;DHT22;38739;53.324;6.862;2023-03-24T08:50:03;11.10;99.90
52867;DHT22;38739;53.324;6.862;2023-03-24T08:52:32;11.20;99.90
52867;DHT22;38739;53.324;6.862;2023-03-24T08:54:58;11.20;99.90
52867;DHT22;38739;53.324;6.862;2023-03-24T08:57:24;11.20;99.90
52867;DHT22;38739;53.324;6.862;2023-03-24T08:59:49;11.30;99.90
52867;DHT22;38739;53.324;6.862;2023-03-24T09:02:15;11.40;99.90
52867;DHT22;38739;53.324;6.862;2023-03-24T09:04:41;11.70;99.90
52867;DHT22;38739;53.324;6.862;2023-03-24T09:07:08;11.90;99.90
52867;DHT22;38739;53.324;6.862;2023-03-24T09:09:34;12.00;99.90
52867;DHT22;38739;53.324;6.862;2023-03-24T09:12:02;12.10;99.90
52867;DHT22;38739;53.324;6.862;2023-03-24T09:14:28;12.30;99.90
52867;DHT22;38739;53.324;6.862;2023-03-24T09:16:54;12.40;99.90
52867;DHT22;38739;53.324;6.862;2023-03-24T09:19:20;12.70;99.90
52867;DHT22;38739;53.324;6.862;2023-03-24T09:21:49;12.90;99.90
52867;DHT22;38739;53.324;6.862;2023-03-24T09:24:15;13.00;99.90
52867;DHT22;38739;53.324;6.862;2023-03-24T09:26:40;13.20;99.90
52867;DHT22;38739;53.324;6.862;2023-03-24T09:29:06;13.20;99.90
52867;DHT22;38739;53.324;6.862;2023-03-24T09:31:35;13.30;99.90
52867;DHT22;38739;53.324;6.862;2023-03-24T09:34:01;13.20;99.90
52867;DHT22;38739;53.324;6.862;2023-03-24T09:36:28;13.10;99.90
52867;DHT22;38739;53.324;6.862;2023-03-24T09:38:56;12.70;99.90
52867;DHT22;38739;53.324;6.862;2023-03-24T09:41:27;12.60;99.90
52867;DHT22;38739;53.324;6.862;2023-03-24T09:44:08;12.30;99.90
52867;DHT22;38739;53.324;6.862;2023-03-24T09:46:47;12.40;99.90
52867;DHT22;38739;53.324;6.862;2023-03-24T09:49:23;12.60;99.90
52867;DHT22;38739;53.324;6.862;2023-03-24T09:51:53;12.50;99.90
52867;DHT22;38739;53.324;6.862;2023-03-24T09:57:24;13.00;99.90
52867;DHT22;38739;53.324;6.862;2023-03-24T09:59:53;13.00;99.90
52867;DHT22;38739;53.324;6.862;2023-03-24T10:02:21;13.30;99.90
52867;DHT22;38739;53.324;6.862;2023-03-24T10:04:48;13.40;99.90
52867;DHT22;38739;53.324;6.862;2023-03-24T10:07:31;13.90;99.90
52867;DHT22;38739;53.324;6.862;2023-03-24T10:10:00;14.30;99.90
52867;DHT22;38739;53.324;6.862;2023-03-24T10:13:34;14.80;99.90
52867;DHT22;38739;53.324;6.862;2023-03-24T10:16:24;15.10;99.90
52867;DHT22;38739;53.324;6.862;2023-03-24T10:21:54;15.50;99.90
52867;DHT22;38739;53.324;6.862;2023-03-24T10:24:31;15.60;99.90
52867;DHT22;38739;53.324;6.862;2023-03-24T10:27:29;16.00;99.90
52867;DHT22;38739;53.324;6.862;2023-03-24T10:30:17;16.20;99.90
52867;DHT22;38739;53.324;6.862;2023-03-24T10:32:46;16.20;99.90
52867;DHT22;38739;53.324;6.862;2023-03-24T10:35:20;16.40;99.90
52867;DHT22;38739;53.324;6.862;2023-03-24T10:37:48;16.80;99.90
52867;DHT22;38739;53.324;6.862;2023-03-24T10:40:19;16.90;99.90
52867;DHT22;38739;53.324;6.862;2023-03-24T10:42:48;16.80;99.90
52867;DHT22;38739;53.324;6.862;2023-03-24T10:45:27;16.40;98.10
52867;DHT22;38739;53.324;6.862;2023-03-24T10:47:56;16.50;99.20
52867;DHT22;38739;53.324;6.862;2023-03-24T10:50:27;16.50;99.40
52867;DHT22;38739;53.324;6.862;2023-03-24T10:52:53;16.50;99.00
52867;DHT22;38739;53.324;6.862;2023-03-24T10:55:21;16.00;96.80
52867;DHT22;38739;53.324;6.862;2023-03-24T10:57:57;16.10;97.80
52867;DHT22;38739;53.324;6.862;2023-03-24T11:00:31;16.30;97.60
52867;DHT22;38739;53.324;6.862;2023-03-24T11:03:03;16.80;98.50
52867;DHT22;38739;53.324;6.862;2023-03-24T11:05:31;16.90;99.20
52867;DHT22;38739;53.324;6.862;2023-03-24T11:10:44;16.50;98.00
52867;DHT22;38739;53.324;6.862;2023-03-24T11:16:14;15.70;97.70
52867;DHT22;38739;53.324;6.862;2023-03-24T11:19:09;15.40;99.90
52867;DHT22;38739;53.324;6.862;2023-03-24T11:21:49;14.70;98.30
52867;DHT22;38739;53.324;6.862;2023-03-24T11:24:18;14.40;99.90
52867;DHT22;38739;53.324;6.862;2023-03-24T11:26:58;14.20;99.90
52867;DHT22;38739;53.324;6.862;2023-03-24T11:29:32;13.90;99.90
52867;DHT22;38739;53.324;6.862;2023-03-24T11:32:00;13.80;99.90
52867;DHT22;38739;53.324;6.862;2023-03-24T11:34:31;13.80;99.90
52867;DHT22;38739;53.324;6.862;2023-03-24T11:39:40;13.60;99.90
52867;DHT22;38739;53.324;6.862;2023-03-24T11:42:15;13.30;99.90
52867;DHT22;38739;53.324;6.862;2023-03-24T11:47:20;13.70;99.90
52867;DHT22;38739;53.324;6.862;2023-03-24T11:55:32;14.60;99.90
52867;DHT22;38739;53.324;6.862;2023-03-24T11:58:02;15.70;99.90
52867;DHT22;38739;53.324;6.862;2023-03-24T12:00:32;15.80;97.80
52867;DHT22;38739;53.324;6.862;2023-03-24T12:06:10;15.50;95.80
52867;DHT22;38739;53.324;6.862;2023-03-24T12:09:04;15.80;95.20
52867;DHT22;38739;53.324;6.862;2023-03-24T12:11:57;16.60;93.60
52867;DHT22;38739;53.324;6.862;2023-03-24T12:20:43;18.00;91.40
52867;DHT22;38739;53.324;6.862;2023-03-24T12:28:32;20.20;77.40
52867;DHT22;38739;53.324;6.862;2023-03-24T12:33:57;20.80;72.70
52867;DHT22;38739;53.324;6.862;2023-03-24T12:36:50;21.00;72.40
52867;DHT22;38739;53.324;6.862;2023-03-24T12:39:28;21.30;72.10
52867;DHT22;38739;53.324;6.862;2023-03-24T12:42:09;21.00;73.70
52867;DHT22;38739;53.324;6.862;2023-03-24T12:44:58;21.30;73.20
52867;DHT22;38739;53.324;6.862;2023-03-24T12:53:02;18.90;75.80
52867;DHT22;38739;53.324;6.862;2023-03-24T12:55:39;18.30;76.70
52867;DHT22;38739;53.324;6.862;2023-03-24T12:58:18;17.80;79.80
52867;DHT22;38739;53.324;6.862;2023-03-24T13:00:59;18.40;82.90
52867;DHT22;38739;53.324;6.862;2023-03-24T13:03:35;18.00;81.00
52867;DHT22;38739;53.324;6.862;2023-03-24T13:08:48;17.50;82.70
52867;DHT22;38739;53.324;6.862;2023-03-24T13:11:19;16.50;83.90
52867;DHT22;38739;53.324;6.862;2023-03-24T13:13:46;16.80;86.20
52867;DHT22;38739;53.324;6.862;2023-03-24T13:16:22;16.50;86.20
52867;DHT22;38739;53.324;6.862;2023-03-24T13:18:54;16.30;88.60
52867;DHT22;38739;53.324;6.862;2023-03-24T13:21:24;16.10;89.80
52867;DHT22;38739;53.324;6.862;2023-03-24T13:26:36;15.70;90.80
52867;DHT22;38739;53.324;6.862;2023-03-24T13:31:55;15.90;93.60
52867;DHT22;38739;53.324;6.862;2023-03-24T13:34:33;16.10;91.90
52867;DHT22;38739;53.324;6.862;2023-03-24T13:37:05;15.70;90.80
52867;DHT22;38739;53.324;6.862;2023-03-24T13:39:33;15.50;90.30
52867;DHT22;38739;53.324;6.862;2023-03-24T13:42:00;15.40;91.20
52867;DHT22;38739;53.324;6.862;2023-03-24T13:44:36;15.90;91.40
52867;DHT22;38739;53.324;6.862;2023-03-24T13:47:16;16.20;90.10
52867;DHT22;38739;53.324;6.862;2023-03-24T13:50:06;16.60;88.40
52867;DHT22;38739;53.324;6.862;2023-03-24T13:52:39;18.50;88.20
52867;DHT22;38739;53.324;6.862;2023-03-24T13:55:20;19.80;82.50
52867;DHT22;38739;53.324;6.862;2023-03-24T13:57:56;20.50;77.30
52867;DHT22;38739;53.324;6.862;2023-03-24T14:00:27;20.10;75.40
52867;DHT22;38739;53.324;6.862;2023-03-24T14:02:54;19.50;76.70
52867;DHT22;38739;53.324;6.862;2023-03-24T14:10:39;18.60;78.30
52867;DHT22;38739;53.324;6.862;2023-03-24T14:15:55;18.60;73.90
52867;DHT22;38739;53.324;6.862;2023-03-24T14:25:56;17.50;77.30
52867;DHT22;38739;53.324;6.862;2023-03-24T14:28:29;17.40;78.70
52867;DHT22;38739;53.324;6.862;2023-03-24T14:31:26;17.00;79.00
52867;DHT22;38739;53.324;6.862;2023-03-24T14:36:42;16.10;83.00
52867;DHT22;38739;53.324;6.862;2023-03-24T14:41:57;15.30;88.00
52867;DHT22;38739;53.324;6.862;2023-03-24T14:47:29;14.80;91.40
52867;DHT22;38739;53.324;6.862;2023-03-24T14:50:11;14.60;92.60
52867;DHT22;38739;53.324;6.862;2023-03-24T14:53:21;14.60;93.30
52867;DHT22;38739;53.324;6.862;2023-03-24T14:55:42;14.70;94.40
52867;DHT22;38739;53.324;6.862;2023-03-24T14:58:27;15.40;93.00
52867;DHT22;38739;53.324;6.862;2023-03-24T15:00:57;16.80;92.10
52867;DHT22;38739;53.324;6.862;2023-03-24T15:03:58;16.90;89.30
52867;DHT22;38739;53.324;6.862;2023-03-24T15:06:25;16.70;88.90
52867;DHT22;38739;53.324;6.862;2023-03-24T15:08:56;16.90;90.20
52867;DHT22;38739;53.324;6.862;2023-03-24T15:11:37;16.90;87.50
52867;DHT22;38739;53.324;6.862;2023-03-24T15:14:23;16.40;88.60
52867;DHT22;38739;53.324;6.862;2023-03-24T15:16:57;15.90;91.40
52867;DHT22;38739;53.324;6.862;2023-03-24T15:19:34;15.60;92.10
52867;DHT22;38739;53.324;6.862;2023-03-24T15:22:04;15.10;93.10
52867;DHT22;38739;53.324;6.862;2023-03-24T15:24:35;14.90;94.50
52867;DHT22;38739;53.324;6.862;2023-03-24T15:29:41;14.80;95.40
52867;DHT22;38739;53.324;6.862;2023-03-24T15:32:14;15.60;94.70
52867;DHT22;38739;53.324;6.862;2023-03-24T15:34:45;15.60;93.60
52867;DHT22;38739;53.324;6.862;2023-03-24T15:37:33;15.10;93.90
52867;DHT22;38739;53.324;6.862;2023-03-24T15:40:00;14.70;94.20
52867;DHT22;38739;53.324;6.862;2023-03-24T15:42:26;14.50;95.50
52867;DHT22;38739;53.324;6.862;2023-03-24T15:44:53;14.20;95.90
52867;DHT22;38739;53.324;6.862;2023-03-24T15:47:24;13.90;96.50
52867;DHT22;38739;53.324;6.862;2023-03-24T15:49:59;13.70;97.40
52867;DHT22;38739;53.324;6.862;2023-03-24T15:52:34;13.50;97.40
52867;DHT22;38739;53.324;6.862;2023-03-24T15:55:23;13.70;98.30
52867;DHT22;38739;53.324;6.862;2023-03-24T15:57:53;14.70;96.60
52867;DHT22;38739;53.324;6.862;2023-03-24T16:00:28;15.80;94.10
52867;DHT22;38739;53.324;6.862;2023-03-24T16:02:55;16.60;91.50
52867;DHT22;38739;53.324;6.862;2023-03-24T16:05:29;16.50;88.90
52867;DHT22;38739;53.324;6.862;2023-03-24T16:10:37;15.60;91.80
52867;DHT22;38739;53.324;6.862;2023-03-24T16:13:22;15.50;92.50
52867;DHT22;38739;53.324;6.862;2023-03-24T16:18:32;14.70;94.20
52867;DHT22;38739;53.324;6.862;2023-03-24T16:21:08;14.40;96.00
52867;DHT22;38739;53.324;6.862;2023-03-24T16:23:37;14.20;97.40
52867;DHT22;38739;53.324;6.862;2023-03-24T16:26:03;13.90;98.90
52867;DHT22;38739;53.324;6.862;2023-03-24T16:28:31;13.70;99.90
52867;DHT22;38739;53.324;6.862;2023-03-24T16:31:04;13.50;99.90
52867;DHT22;38739;53.324;6.862;2023-03-24T16:33:31;13.30;99.90
52867;DHT22;38739;53.324;6.862;2023-03-24T16:36:00;13.20;99.90
52867;DHT22;38739;53.324;6.862;2023-03-24T16:38:26;13.00;99.90
52867;DHT22;38739;53.324;6.862;2023-03-24T16:40:53;12.90;99.90
52867;DHT22;38739;53.324;6.862;2023-03-24T16:43:20;12.80;99.90
52867;DHT22;38739;53.324;6.862;2023-03-24T16:45:47;12.70;99.90
52867;DHT22;38739;53.324;6.862;2023-03-24T16:48:19;12.60;99.90
52867;DHT22;38739;53.324;6.862;2023-03-24T16:50:50;12.50;99.90
52867;DHT22;38739;53.324;6.862;2023-03-24T16:53:20;12.50;99.90
52867;DHT22;38739;53.324;6.862;2023-03-24T16:55:54;12.40;99.90
52867;DHT22;38739;53.324;6.862;2023-03-24T16:58:20;12.40;99.90
52867;DHT22;38739;53.324;6.862;2023-03-24T17:00:48;12.30;99.90
52867;DHT22;38739;53.324;6.862;2023-03-24T17:03:16;12.30;99.90
52867;DHT22;38739;53.324;6.862;2023-03-24T17:05:50;12.30;99.90
52867;DHT22;38739;53.324;6.862;2023-03-24T17:08:17;12.20;99.90
52867;DHT22;38739;53.324;6.862;2023-03-24T17:10:45;12.20;99.90
52867;DHT22;38739;53.324;6.862;2023-03-24T17:13:21;12.10;99.90
52867;DHT22;38739;53.324;6.862;2023-03-24T17:15:46;12.10;99.90
52867;DHT22;38739;53.324;6.862;2023-03-24T17:18:13;12.10;99.90
52867;DHT22;38739;53.324;6.862;2023-03-24T17:20:41;12.00;99.90
52867;DHT22;38739;53.324;6.862;2023-03-24T17:23:09;12.00;99.90
52867;DHT22;38739;53.324;6.862;2023-03-24T17:25:36;11.90;99.90
52867;DHT22;38739;53.324;6.862;2023-03-24T17:28:02;11.90;99.90
52867;DHT22;38739;53.324;6.862;2023-03-24T17:30:28;11.80;99.90
52867;DHT22;38739;53.324;6.862;2023-03-24T17:32:54;11.70;99.90
52867;DHT22;38739;53.324;6.862;2023-03-24T17:35:22;11.70;99.90
52867;DHT22;38739;53.324;6.862;2023-03-24T17:37:49;11.60;99.90
52867;DHT22;38739;53.324;6.862;2023-03-24T17:40:17;11.60;99.90
52867;DHT22;38739;53.324;6.862;2023-03-24T17:42:44;11.50;99.90
52867;DHT22;38739;53.324;6.862;2023-03-24T17:45:13;11.40;99.90
52867;DHT22;38739;53.324;6.862;2023-03-24T17:47:39;11.40;99.90
52867;DHT22;38739;53.324;6.862;2023-03-24T17:50:06;11.30;99.90
52867;DHT22;38739;53.324;6.862;2023-03-24T17:52:35;11.30;99.90
52867;DHT22;38739;53.324;6.862;2023-03-24T17:55:02;11.20;99.90
52867;DHT22;38739;53.324;6.862;2023-03-24T17:57:29;11.10;99.90
52867;DHT22;38739;53.324;6.862;2023-03-24T17:59:58;11.10;99.90
52867;DHT22;38739;53.324;6.862;2023-03-24T18:02:24;11.10;99.90
52867;DHT22;38739;53.324;6.862;2023-03-24T18:04:50;11.00;99.90
52867;DHT22;38739;53.324;6.862;2023-03-24T18:07:15;11.00;99.90
52867;DHT22;38739;53.324;6.862;2023-03-24T18:10:01;11.00;99.90
52867;DHT22;38739;53.324;6.862;2023-03-24T18:12:30;10.90;99.90
52867;DHT22;38739;53.324;6.862;2023-03-24T18:14:55;10.90;99.90
52867;DHT22;38739;53.324;6.862;2023-03-24T18:17:21;10.90;99.90